Time;durP1;ratioP1;P1;durP2;ratioP2;P2;SDS_P1;SDS_P2;PMS_P1;PMS_P2;Temp;Humidity;BMP_temperature;BMP_pressure;BME280_temperature;BME280_humidity;BME280_pressure;Samples;Min_cycle;Max_cycle;Signal;HPM_P1;HPM_P2
2022/01/09 00:01:50;;;;;;;;;;;;;;;;;;5061178;28;19920;-59
2022/01/09 00:04:16;;;;;;;;;;;;;;;;;;5061426;28;20005;-59
2022/01/09 00:06:42;;;;;;;;;;;;;;;;;;5062300;28;20410;-59
2022/01/09 00:09:08;;;;;;;;;;;;;;;;;;5060830;28;19928;-59
2022/01/09 00:11:34;;;;;;;;;;;;;;;;;;5062591;28;19942;-60
2022/01/09 00:14:00;;;;;;;;;;;;;;;;;;5062671;28;19922;-60
2022/01/09 00:16:26;;;;;;;;;;;;;;;;;;5045126;28;19927;-61
2022/01/09 00:18:52;;;;;;;;;;;;;;;;;;5062038;28;20034;-59
2022/01/09 00:21:18;;;;;;;;;;;;;;;;;;5061535;28;19927;-59
2022/01/09 00:23:45;;;;;;;;;;;;;;;;;;5065028;28;19924;-60
2022/01/09 00:26:11;;;;;;;;;;;;;;;;;;5045960;28;19927;-60
2022/01/09 00:28:36;;;;;;;;;;;;;;;;;;5063708;28;20417;-59
2022/01/09 00:31:02;;;;;;;;;;;;;;;;;;5061973;28;19943;-60
2022/01/09 00:33:28;;;;;;;;;;;;;;;;;;5064093;28;20006;-58
2022/01/09 00:35:54;;;;;;;;;;;;;;;;;;5061941;28;19946;-60
2022/01/09 00:38:20;;;;;;;;;;;;;;;;;;5056524;28;19931;-60
2022/01/09 00:40:46;;;;;;;;;;;;;;;;;;5057031;28;20010;-61
2022/01/09 00:43:12;;;;;;;;;;;;;;;;;;5058072;28;19954;-59
2022/01/09 00:45:38;;;;;;;;;;;;;;;;;;5057105;28;20386;-60
2022/01/09 00:48:03;;;;;;;;;;;;;;;;;;5056845;28;19916;-59
2022/01/09 00:50:29;;;;;;;;;;;;;;;;;;5058167;28;20344;-59
2022/01/09 00:52:55;;;;;;;;;;;;;;;;;;5057143;28;20013;-59
2022/01/09 00:55:21;;;;;;;;;;;;;;;;;;5058426;28;19970;-59
2022/01/09 00:57:47;;;;;;;;;;;;;;;;;;5057258;28;19961;-60
2022/01/09 01:00:13;;;;;;;;;;;;;;;;;;5057480;28;19920;-60
2022/01/09 01:02:39;;;;;;;;;;;;;;;;;;5056043;28;20350;-60
2022/01/09 01:05:05;;;;;;;;;;;;;;;;;;5058466;28;19920;-60
2022/01/09 01:07:30;;;;;;;;;;;;;;;;;;5058261;28;19935;-59
2022/01/09 01:09:57;;;;;;;;;;;;;;;;;;5059234;28;19921;-59
2022/01/09 01:12:24;;;;;;;;;;;;;;;;;;5046141;28;20658;-59
2022/01/09 01:14:50;;;;;;;;;;;;;;;;;;5056836;28;19920;-61
2022/01/09 01:17:16;;;;;;;;;;;;;;;;;;5057212;28;19920;-60
2022/01/09 01:19:42;;;;;;;;;;;;;;;;;;5049633;28;20007;-60
2022/01/09 01:22:08;;;;;;;;;;;;;;;;;;5055904;28;19977;-60
2022/01/09 01:24:36;;;;;;;;;;;;;;;;;;5057162;28;19946;-61
2022/01/09 01:27:02;;;;;;;;;;;;;;;;;;5058169;28;19924;-59
2022/01/09 01:29:28;;;;;;;;;;;;;;;;;;5057537;28;19998;-61
2022/01/09 01:31:54;;;;;;;;;;;;;;;;;;5052425;28;19960;-61
2022/01/09 01:34:19;;;;;;;;;;;5.60;99.90;;;;;;5057865;28;20174;-60
2022/01/09 01:36:45;;;;;;;;;;;5.60;99.90;;;;;;5057043;28;19970;-60
2022/01/09 01:39:10;;;;;;;;;;;5.40;99.90;;;;;;5057518;28;19920;-60
2022/01/09 01:41:36;;;;;;;;;;;5.20;99.90;;;;;;5058261;28;19916;-61
2022/01/09 01:44:02;;;;;;;;;;;5.20;99.90;;;;;;5056110;28;19966;-59
2022/01/09 01:46:27;;;;;;;;;;;5.30;99.90;;;;;;5055366;28;19994;-59
2022/01/09 01:48:53;;;;;;;;;;;5.30;99.90;;;;;;5056993;28;19921;-59
2022/01/09 01:51:19;;;;;;;;;;;5.10;99.90;;;;;;5056634;28;20189;-59
2022/01/09 01:53:45;;;;;;;;;;;4.90;99.90;;;;;;5041750;28;19928;-60
2022/01/09 01:56:18;;;;;;;;;;;5.10;99.90;;;;;;5054095;28;19917;-60
2022/01/09 01:58:44;;;;;;;;;;;5.30;99.90;;;;;;5056553;28;20018;-60
2022/01/09 02:01:09;;;;;;;;;;;5.30;99.90;;;;;;5056159;28;19920;-61
2022/01/09 02:03:35;;;;;;;;;;;5.30;99.90;;;;;;5057057;28;19956;-60
2022/01/09 02:06:00;;;;;;;;;;;5.40;99.90;;;;;;5054730;28;19920;-59
2022/01/09 02:08:26;;;;;;;;;;;5.50;99.90;;;;;;5057174;28;19920;-60
2022/01/09 02:10:51;;;;;;;;;;;5.50;99.90;;;;;;5057905;28;20080;-60
2022/01/09 02:13:19;;;;;;;;;;;5.40;99.90;;;;;;5058146;28;19927;-59
2022/01/09 02:15:46;;;;;;;;;;;5.30;99.90;;;;;;5044387;28;19922;-60
2022/01/09 02:18:12;;;;;;;;;;;5.30;99.90;;;;;;5052051;28;19974;-59
2022/01/09 02:20:38;;;;;;;;;;;5.20;99.90;;;;;;5056428;28;19916;-59
2022/01/09 02:23:05;;;;;;;;;;;5.20;99.90;;;;;;5057969;28;20383;-59
2022/01/09 02:25:31;;;;;;;;;;;5.30;99.90;;;;;;5058759;28;20350;-60
2022/01/09 02:27:57;;;;;;;;;;;5.20;99.90;;;;;;5055938;28;20015;-60
2022/01/09 02:30:22;;;;;;;;;;;5.30;99.90;;;;;;5052009;28;20307;-58
2022/01/09 02:32:48;;;;;;;;;;;5.30;99.90;;;;;;5055313;28;19928;-60
2022/01/09 02:35:13;;;;;;;;;;;5.30;99.90;;;;;;5057220;28;19920;-59
2022/01/09 02:37:39;;;;;;;;;;;5.20;99.90;;;;;;5055280;28;19927;-59
2022/01/09 02:40:05;;;;;;;;;;;5.20;99.90;;;;;;5054243;28;20291;-59
2022/01/09 02:42:32;;;;;;;;;;;5.20;99.90;;;;;;5043358;28;20437;-60
2022/01/09 02:44:58;;;;;;;;;;;5.20;99.90;;;;;;5057682;28;20475;-59
2022/01/09 02:47:25;;;;;;;;;;;5.20;99.90;;;;;;5054917;28;19920;-60
2022/01/09 02:49:53;;;;;;;;;;;5.20;99.90;;;;;;5056694;28;19912;-59
2022/01/09 02:52:33;;;;;;;;;;;5.20;99.90;;;;;;5052920;28;20401;-60
2022/01/09 02:55:11;;;;;;;;;;;5.20;99.90;;;;;;5045489;28;19924;-59
2022/01/09 02:57:47;;;;;;;;;;;5.20;99.90;;;;;;5059237;28;20007;-60
2022/01/09 03:00:14;;;;;;;;;;;5.20;99.90;;;;;;5061220;28;19912;-59
2022/01/09 03:02:40;;;;;;;;;;;5.30;99.90;;;;;;5055654;28;20376;-61
2022/01/09 03:05:06;;;;;;;;;;;5.30;99.90;;;;;;5025812;28;19959;-59
2022/01/09 03:07:32;;;;;;;;;;;5.30;99.90;;;;;;5059959;28;20336;-60
2022/01/09 03:09:57;;;;;;;;;;;5.40;99.90;;;;;;5059119;28;19939;-60
2022/01/09 03:12:23;;;;;;;;;;;5.30;99.90;;;;;;5060271;28;19952;-60
2022/01/09 03:14:49;;;;;;;;;;;5.60;99.90;;;;;;5056035;28;20375;-60
2022/01/09 03:17:14;;;;;;;;;;;5.60;99.90;;;;;;5059651;28;20030;-60
2022/01/09 03:19:40;;;;;;;;;;;;;;;;;;5057708;28;20316;-59
2022/01/09 03:22:06;;;;;;;;;;;6.60;99.90;;;;;;5060239;28;20367;-59
2022/01/09 03:24:31;;;;;;;;;;;5.70;99.90;;;;;;5063282;28;20023;-60
2022/01/09 03:26:57;;;;;;;;;;;5.80;99.90;;;;;;5055693;28;20536;-60
2022/01/09 03:29:23;;;;;;;;;;;;;;;;;;5059947;28;19927;-60
2022/01/09 03:31:49;;;;;;;;;;;5.90;99.90;;;;;;5058136;28;19962;-60
2022/01/09 03:34:14;;;;;;;;;;;6.40;99.90;;;;;;5059220;28;19920;-60
2022/01/09 03:36:40;;;;;;;;;;;5.90;99.90;;;;;;5060532;28;19916;-61
2022/01/09 03:39:05;;;;;;;;;;;5.90;99.90;;;;;;5053985;28;19977;-60
2022/01/09 03:41:31;;;;;;;;;;;5.90;99.90;;;;;;5060141;28;20348;-60
2022/01/09 03:43:56;;;;;;;;;;;6.00;99.90;;;;;;5059809;28;19919;-59
2022/01/09 03:46:22;;;;;;;;;;;5.90;99.90;;;;;;5059381;28;20293;-61
2022/01/09 03:48:47;;;;;;;;;;;6.70;99.90;;;;;;5057748;28;19926;-61
2022/01/09 03:51:13;;;;;;;;;;;5.90;99.90;;;;;;5056160;28;19924;-60
2022/01/09 03:53:39;;;;;;;;;;;5.90;99.90;;;;;;5059536;28;19924;-60
2022/01/09 03:56:04;;;;;;;;;;;5.90;99.90;;;;;;5044118;28;19973;-60
2022/01/09 03:58:30;;;;;;;;;;;5.90;99.90;;;;;;5048679;28;20441;-60
2022/01/09 04:00:55;;;;;;;;;;;5.90;99.90;;;;;;5041702;28;20362;-60
2022/01/09 04:03:21;;;;;;;;;;;6.10;99.90;;;;;;5057358;28;19927;-60
2022/01/09 04:05:46;;;;;;;;;;;5.90;99.90;;;;;;5059759;28;19921;-59
2022/01/09 04:08:12;;;;;;;;;;;5.90;99.90;;;;;;5058351;28;20015;-60
2022/01/09 04:10:41;;;;;;;;;;;6.00;99.90;;;;;;5059497;28;20248;-60
2022/01/09 04:13:07;;;;;;;;;;;6.00;99.90;;;;;;5057007;28;20296;-61
2022/01/09 04:15:33;;;;;;;;;;;6.00;99.90;;;;;;5059330;28;19917;-61
2022/01/09 04:17:59;;;;;;;;;;;6.20;99.90;;;;;;5059175;28;19924;-62
2022/01/09 04:20:26;;;;;;;;;;;6.00;99.90;;;;;;5058146;28;19917;-60
2022/01/09 04:22:52;;;;;;;;;;;6.00;99.90;;;;;;5058126;28;20280;-61
2022/01/09 04:25:18;;;;;;;;;;;5.80;99.90;;;;;;5056285;28;19940;-61
2022/01/09 04:27:44;;;;;;;;;;;6.60;99.90;;;;;;5059671;28;20331;-60
2022/01/09 04:30:10;;;;;;;;;;;6.10;99.90;;;;;;5059197;28;20004;-59
2022/01/09 04:32:36;;;;;;;;;;;6.20;99.90;;;;;;5058497;28;19928;-60
2022/01/09 04:35:02;;;;;;;;;;;6.00;99.90;;;;;;5042111;28;19928;-60
2022/01/09 04:37:28;;;;;;;;;;;6.10;99.90;;;;;;5056524;28;19913;-60
2022/01/09 04:39:54;;;;;;;;;;;6.10;99.90;;;;;;5058197;28;20002;-60
2022/01/09 04:42:24;;;;;;;;;;;6.10;99.90;;;;;;5056872;28;19913;-60
2022/01/09 04:44:50;;;;;;;;;;;6.10;99.90;;;;;;5059527;28;19927;-60
2022/01/09 04:47:17;;;;;;;;;;;6.10;99.90;;;;;;5055074;28;19921;-60
2022/01/09 04:49:45;;;;;;;;;;;6.10;99.90;;;;;;5057681;28;20542;-61
2022/01/09 04:52:18;;;;;;;;;;;6.10;99.90;;;;;;5057241;28;19925;-61
2022/01/09 04:54:43;;;;;;;;;;;6.10;99.90;;;;;;5057698;28;20391;-60
2022/01/09 04:57:09;;;;;;;;;;;6.10;99.90;;;;;;5054285;28;19947;-61
2022/01/09 04:59:35;;;;;;;;;;;6.10;99.90;;;;;;5054113;28;20096;-61
2022/01/09 05:02:00;;;;;;;;;;;6.10;99.90;;;;;;5043530;28;20509;-60
2022/01/09 05:04:26;;;;;;;;;;;6.10;99.90;;;;;;5056159;28;19928;-61
2022/01/09 05:06:51;;;;;;;;;;;6.10;99.90;;;;;;5058585;28;19939;-61
2022/01/09 05:09:17;;;;;;;;;;;5.80;99.90;;;;;;5054024;28;20050;-61
2022/01/09 05:11:42;;;;;;;;;;;6.10;99.90;;;;;;5044095;28;20575;-60
2022/01/09 05:14:08;;;;;;;;;;;6.00;99.90;;;;;;5057105;28;20054;-61
2022/01/09 05:16:33;;;;;;;;;;;6.10;99.90;;;;;;5055505;28;19928;-61
2022/01/09 05:19:05;;;;;;;;;;;6.00;99.90;;;;;;5059002;28;20361;-60
2022/01/09 05:21:30;;;;;;;;;;;6.00;99.90;;;;;;5037671;28;20264;-60
2022/01/09 05:23:56;;;;;;;;;;;6.00;99.90;;;;;;5045278;28;19913;-62
2022/01/09 05:26:21;;;;;;;;;;;6.00;99.90;;;;;;5026004;28;19912;-60
2022/01/09 05:28:47;;;;;;;;;;;6.20;99.90;;;;;;5058240;28;20242;-61
2022/01/09 05:31:12;;;;;;;;;;;5.90;99.90;;;;;;5037891;28;19924;-61
2022/01/09 05:33:38;;;;;;;;;;;6.00;99.90;;;;;;5057677;28;19931;-60
2022/01/09 05:36:03;;;;;;;;;;;5.90;99.90;;;;;;5058339;28;19927;-60
2022/01/09 05:38:29;;;;;;;;;;;6.00;99.90;;;;;;5057355;28;19924;-61
2022/01/09 05:40:57;;;;;;;;;;;5.70;99.90;;;;;;5058157;28;21300;-61
2022/01/09 05:43:24;;;;;;;;;;;5.90;99.90;;;;;;5054121;28;19931;-59
2022/01/09 05:45:49;;;;;;;;;;;5.90;99.90;;;;;;5056111;28;19986;-61
2022/01/09 05:48:16;;;;;;;;;;;5.90;99.90;;;;;;5056069;28;20241;-60
2022/01/09 05:50:43;;;;;;;;;;;5.90;99.90;;;;;;5056114;28;19917;-60
2022/01/09 05:53:08;;;;;;;;;;;5.90;99.90;;;;;;5057602;28;20407;-60
2022/01/09 05:55:34;;;;;;;;;;;5.90;99.90;;;;;;5052103;28;19946;-61
2022/01/09 05:57:59;;;;;;;;;;;5.90;99.90;;;;;;5058878;28;19912;-60
2022/01/09 06:00:25;;;;;;;;;;;5.90;99.90;;;;;;5055112;28;20299;-60
2022/01/09 06:02:50;;;;;;;;;;;6.00;99.90;;;;;;5055364;28;19970;-60
2022/01/09 06:05:16;;;;;;;;;;;5.90;99.90;;;;;;5054124;28;19928;-62
2022/01/09 06:07:42;;;;;;;;;;;5.90;99.90;;;;;;5054536;28;19966;-61
2022/01/09 06:10:09;;;;;;;;;;;5.80;99.90;;;;;;5056671;28;19917;-61
2022/01/09 06:12:34;;;;;;;;;;;5.80;99.90;;;;;;5059556;28;20304;-61
2022/01/09 06:15:00;;;;;;;;;;;5.80;99.90;;;;;;5058015;28;19912;-60
2022/01/09 06:17:25;;;;;;;;;;;5.80;99.90;;;;;;5052789;28;20613;-60
2022/01/09 06:19:51;;;;;;;;;;;5.80;99.90;;;;;;5055835;28;19912;-61
2022/01/09 06:22:18;;;;;;;;;;;5.70;99.90;;;;;;5055162;28;20439;-62
2022/01/09 06:24:46;;;;;;;;;;;5.80;99.90;;;;;;5057058;28;20004;-60
2022/01/09 06:27:12;;;;;;;;;;;5.80;99.90;;;;;;5055848;28;19923;-59
2022/01/09 06:29:38;;;;;;;;;;;5.70;99.90;;;;;;5051825;28;20201;-61
2022/01/09 06:32:04;;;;;;;;;;;5.70;99.90;;;;;;5058119;28;20222;-60
2022/01/09 06:34:29;;;;;;;;;;;5.70;99.90;;;;;;5060167;28;20342;-60
2022/01/09 06:36:54;;;;;;;;;;;5.70;99.90;;;;;;5060187;28;19928;-61
2022/01/09 06:39:20;;;;;;;;;;;5.60;99.90;;;;;;5056126;28;20053;-62
2022/01/09 06:41:45;;;;;;;;;;;5.60;99.90;;;;;;5046859;28;20323;-61
2022/01/09 06:44:11;;;;;;;;;;;5.70;99.90;;;;;;5060980;28;19922;-61
2022/01/09 06:46:36;;;;;;;;;;;5.60;99.90;;;;;;5059729;28;19920;-60
2022/01/09 06:49:02;;;;;;;;;;;5.60;99.90;;;;;;5061166;28;19998;-61
2022/01/09 06:51:28;;;;;;;;;;;5.50;99.90;;;;;;5056137;28;19927;-61
2022/01/09 06:53:53;;;;;;;;;;;5.40;99.90;;;;;;5059882;28;19947;-60
2022/01/09 06:56:19;;;;;;;;;;;5.60;99.90;;;;;;5059482;28;19913;-60
2022/01/09 06:58:44;;;;;;;;;;;5.50;99.90;;;;;;5060175;28;19917;-61
2022/01/09 07:01:10;;;;;;;;;;;5.70;99.90;;;;;;5060250;28;20272;-61
2022/01/09 07:03:35;;;;;;;;;;;5.60;99.90;;;;;;5056251;28;19916;-60
2022/01/09 07:06:00;;;;;;;;;;;5.70;99.90;;;;;;5060373;28;19920;-60
2022/01/09 07:08:27;;;;;;;;;;;5.70;99.90;;;;;;5060382;28;20382;-61
2022/01/09 07:10:53;;;;;;;;;;;5.60;99.90;;;;;;5059762;28;19959;-61
2022/01/09 07:13:18;;;;;;;;;;;5.50;99.90;;;;;;5059860;28;19920;-60
2022/01/09 07:15:44;;;;;;;;;;;5.60;99.90;;;;;;5042766;28;20383;-61
2022/01/09 07:18:10;;;;;;;;;;;5.60;99.90;;;;;;5059356;28;19943;-61
2022/01/09 07:20:35;;;;;;;;;;;5.70;99.90;;;;;;5058962;28;20028;-61
2022/01/09 07:23:01;;;;;;;;;;;5.50;99.90;;;;;;5060429;28;19920;-60
2022/01/09 07:25:26;;;;;;;;;;;5.50;99.90;;;;;;5056920;28;20419;-61
2022/01/09 07:27:51;;;;;;;;;;;5.60;99.90;;;;;;5059391;28;19924;-60
2022/01/09 07:30:17;;;;;;;;;;;5.30;99.90;;;;;;5060509;28;19916;-60
2022/01/09 07:32:42;;;;;;;;;;;5.50;99.90;;;;;;5056946;28;19931;-61
2022/01/09 07:35:08;;;;;;;;;;;5.60;99.90;;;;;;5060152;28;19960;-62
2022/01/09 07:37:34;;;;;;;;;;;5.70;99.90;;;;;;5055949;28;19993;-60
2022/01/09 07:40:00;;;;;;;;;;;5.50;99.90;;;;;;5047311;28;20280;-62
2022/01/09 07:42:25;;;;;;;;;;;5.40;99.90;;;;;;5060590;28;19913;-61
2022/01/09 07:44:51;;;;;;;;;;;5.90;99.90;;;;;;5059014;28;20818;-62
2022/01/09 07:47:16;;;;;;;;;;;5.70;99.90;;;;;;5059243;28;20530;-61
2022/01/09 07:49:42;;;;;;;;;;;5.30;99.90;;;;;;5054048;28;20071;-61
2022/01/09 07:52:08;;;;;;;;;;;5.20;99.90;;;;;;5058395;28;20350;-61
2022/01/09 07:54:33;;;;;;;;;;;5.60;99.90;;;;;;5058201;28;19912;-61
2022/01/09 07:56:58;;;;;;;;;;;5.60;99.90;;;;;;5045813;28;20371;-61
2022/01/09 07:59:24;;;;;;;;;;;5.30;99.90;;;;;;5040438;28;19927;-61
2022/01/09 08:01:50;;;;;;;;;;;5.40;99.90;;;;;;5057175;28;19924;-62
2022/01/09 08:04:15;;;;;;;;;;;4.90;99.90;;;;;;5060682;28;20012;-61
2022/01/09 08:06:41;;;;;;;;;;;5.40;99.90;;;;;;5058577;28;19963;-60
2022/01/09 08:09:07;;;;;;;;;;;5.40;99.90;;;;;;5060060;28;20021;-61
2022/01/09 08:11:32;;;;;;;;;;;5.60;99.90;;;;;;5054982;28;20465;-60
2022/01/09 08:13:58;;;;;;;;;;;5.40;99.90;;;;;;5058430;28;20298;-63
2022/01/09 08:16:23;;;;;;;;;;;5.30;99.90;;;;;;5045247;28;19920;-63
2022/01/09 08:18:49;;;;;;;;;;;5.30;99.90;;;;;;5052289;28;19913;-63
2022/01/09 08:21:19;;;;;;;;;;;5.30;99.90;;;;;;5056957;28;19926;-62
2022/01/09 08:23:48;;;;;;;;;;;5.30;99.90;;;;;;5055405;28;19920;-63
2022/01/09 08:26:14;;;;;;;;;;;5.40;99.90;;;;;;5058868;28;20364;-63
2022/01/09 08:28:42;;;;;;;;;;;5.90;99.90;;;;;;5058513;28;20354;-63
2022/01/09 08:31:08;;;;;;;;;;;5.50;99.90;;;;;;5059316;28;20277;-63
2022/01/09 08:33:33;;;;;;;;;;;5.50;99.90;;;;;;5054347;28;19974;-63
2022/01/09 08:35:59;;;;;;;;;;;5.50;99.90;;;;;;5058738;28;20482;-63
2022/01/09 08:38:25;;;;;;;;;;;5.50;99.90;;;;;;5043038;28;20019;-63
2022/01/09 08:40:50;;;;;;;;;;;5.70;99.90;;;;;;5057039;28;19916;-63
2022/01/09 08:43:16;;;;;;;;;;;5.50;99.90;;;;;;5046119;28;19916;-62
2022/01/09 08:45:41;;;;;;;;;;;5.50;99.90;;;;;;5053505;28;19921;-63
2022/01/09 08:48:07;;;;;;;;;;;5.40;99.90;;;;;;5056858;28;19917;-63
2022/01/09 08:50:33;;;;;;;;;;;5.50;99.90;;;;;;5059761;28;19916;-62
2022/01/09 08:52:58;;;;;;;;;;;5.40;99.90;;;;;;5058207;28;20445;-63
2022/01/09 08:55:24;;;;;;;;;;;5.50;99.90;;;;;;5059083;28;19924;-63
2022/01/09 08:57:50;;;;;;;;;;;5.70;99.90;;;;;;5055030;28;19920;-63
2022/01/09 09:00:18;;;;;;;;;;;5.50;99.90;;;;;;5057239;28;19928;-62
2022/01/09 09:02:43;;;;;;;;;;;5.50;99.90;;;;;;5057347;28;20297;-62
2022/01/09 09:05:09;;;;;;;;;;;5.50;99.90;;;;;;5044911;28;19974;-62
2022/01/09 09:07:35;;;;;;;;;;;5.40;99.90;;;;;;5058055;28;20011;-63
2022/01/09 09:10:03;;;;;;;;;;;5.70;99.90;;;;;;5054399;28;20493;-63
2022/01/09 09:12:29;;;;;;;;;;;5.60;99.90;;;;;;5056738;28;20380;-63
2022/01/09 09:14:55;;;;;;;;;;;5.60;99.90;;;;;;5045163;28;19966;-62
2022/01/09 09:17:20;;;;;;;;;;;5.70;99.90;;;;;;5056234;28;19921;-63
2022/01/09 09:19:46;;;;;;;;;;;5.70;99.90;;;;;;5057347;28;19916;-62
2022/01/09 09:22:12;;;;;;;;;;;;;;;;;;5044689;28;20348;-63
2022/01/09 09:24:38;;;;;;;;;;;5.90;99.90;;;;;;5057054;28;19917;-62
2022/01/09 09:27:04;;;;;;;;;;;5.80;99.90;;;;;;5055822;28;19956;-63
2022/01/09 09:29:29;;;;;;;;;;;6.00;99.90;;;;;;5057020;28;19998;-62
2022/01/09 09:31:56;;;;;;;;;;;6.00;99.90;;;;;;5055718;28;19920;-63
2022/01/09 09:34:21;;;;;;;;;;;5.90;99.90;;;;;;5057498;28;19920;-63
2022/01/09 09:36:47;;;;;;;;;;;5.90;99.90;;;;;;5055249;28;19926;-63
2022/01/09 09:39:13;;;;;;;;;;;6.00;99.90;;;;;;5057371;28;19917;-63
2022/01/09 09:41:41;;;;;;;;;;;6.10;99.90;;;;;;5056898;28;19924;-62
2022/01/09 09:44:09;;;;;;;;;;;6.10;99.90;;;;;;5057402;28;19913;-63
2022/01/09 09:46:34;;;;;;;;;;;6.00;99.90;;;;;;5047650;28;19924;-62
2022/01/09 09:49:00;;;;;;;;;;;6.00;99.90;;;;;;5055413;28;20304;-63
2022/01/09 09:51:27;;;;;;;;;;;6.00;99.90;;;;;;5055898;28;20457;-63
2022/01/09 09:53:52;;;;;;;;;;;6.00;99.90;;;;;;5057014;28;19920;-63
2022/01/09 09:56:18;;;;;;;;;;;6.10;99.90;;;;;;5056964;28;20429;-62
2022/01/09 09:58:45;;;;;;;;;;;6.10;99.90;;;;;;5048246;28;20145;-62
2022/01/09 10:01:22;;;;;;;;;;;6.10;99.90;;;;;;5054802;28;20364;-63
2022/01/09 10:03:52;;;;;;;;;;;6.10;99.90;;;;;;5054790;28;19921;-63
2022/01/09 10:06:36;;;;;;;;;;;6.10;99.90;;;;;;5056083;28;20385;-62
2022/01/09 10:09:06;;;;;;;;;;;6.00;99.90;;;;;;5054782;28;19921;-63
2022/01/09 10:11:40;;;;;;;;;;;6.20;99.90;;;;;;5052501;28;20363;-62
2022/01/09 10:14:13;;;;;;;;;;;6.00;99.90;;;;;;5059898;28;19963;-63
2022/01/09 10:16:38;;;;;;;;;;;6.00;99.90;;;;;;5053844;28;19928;-63
2022/01/09 10:19:04;;;;;;;;;;;6.10;99.90;;;;;;5055387;28;19916;-63
2022/01/09 10:21:29;;;;;;;;;;;6.10;99.90;;;;;;5054323;28;19960;-62
2022/01/09 10:24:06;;;;;;;;;;;6.00;99.90;;;;;;5054701;28;20191;-62
2022/01/09 10:26:33;;;;;;;;;;;6.00;99.90;;;;;;5044050;28;19917;-62
2022/01/09 10:28:59;;;;;;;;;;;6.00;99.90;;;;;;5056064;28;19921;-62
2022/01/09 10:31:24;;;;;;;;;;;6.00;99.90;;;;;;5057704;28;20257;-62
2022/01/09 10:33:56;;;;;;;;;;;6.10;99.90;;;;;;5049622;28;19925;-62
2022/01/09 10:36:51;;;;;;;;;;;6.50;99.90;;;;;;5039632;28;20025;-62
2022/01/09 10:39:18;;;;;;;;;;;6.40;99.90;;;;;;5039489;28;20386;-62
2022/01/09 10:41:48;;;;;;;;;;;6.30;99.90;;;;;;5055333;28;19920;-62
2022/01/09 10:44:14;;;;;;;;;;;6.20;99.90;;;;;;5051907;28;19924;-62
2022/01/09 10:46:40;;;;;;;;;;;6.30;99.90;;;;;;5041045;28;20008;-62
2022/01/09 10:49:05;;;;;;;;;;;6.20;99.90;;;;;;5055126;28;20264;-61
2022/01/09 10:51:31;;;;;;;;;;;6.10;99.90;;;;;;5056070;28;19964;-62
2022/01/09 10:53:58;;;;;;;;;;;6.10;99.90;;;;;;5040582;28;20390;-60
2022/01/09 10:56:25;;;;;;;;;;;6.10;99.90;;;;;;5054728;28;20641;-61
2022/01/09 10:58:51;;;;;;;;;;;6.30;99.90;;;;;;5053338;28;19917;-61
2022/01/09 11:01:17;;;;;;;;;;;6.20;99.90;;;;;;5039988;28;19921;-62
2022/01/09 11:03:44;;;;;;;;;;;;;;;;;;5054870;28;19927;-61
2022/01/09 11:06:10;;;;;;;;;;;6.20;99.90;;;;;;5043241;28;20259;-61
2022/01/09 11:08:36;;;;;;;;;;;6.40;99.90;;;;;;5051710;28;20426;-61
2022/01/09 11:11:05;;;;;;;;;;;6.50;99.90;;;;;;5054420;28;20392;-61
2022/01/09 11:13:32;;;;;;;;;;;6.50;99.90;;;;;;5055283;28;20062;-61
2022/01/09 11:18:42;;;;;;;;;;;6.50;99.90;;;;;;5049117;28;20497;-61
2022/01/09 11:21:08;;;;;;;;;;;5.80;99.90;;;;;;5060049;28;20359;-62
2022/01/09 11:23:42;;;;;;;;;;;5.90;99.90;;;;;;5049833;28;20249;-61
2022/01/09 11:26:09;;;;;;;;;;;6.40;99.90;;;;;;5057832;28;19917;-62
2022/01/09 11:28:38;;;;;;;;;;;6.50;99.90;;;;;;5055131;28;19927;-62
2022/01/09 11:31:04;;;;;;;;;;;6.50;99.90;;;;;;5056149;28;20006;-62
2022/01/09 11:33:38;;;;;;;;;;;6.50;99.90;;;;;;5058064;28;20007;-62
2022/01/09 11:36:20;;;;;;;;;;;6.50;99.90;;;;;;5056143;28;19928;-62
2022/01/09 11:39:02;;;;;;;;;;;6.50;99.90;;;;;;5041955;28;20447;-61
2022/01/09 11:41:30;;;;;;;;;;;6.40;99.90;;;;;;5040396;28;20383;-62
2022/01/09 11:44:03;;;;;;;;;;;6.40;99.90;;;;;;5056695;28;19938;-61
2022/01/09 11:46:29;;;;;;;;;;;6.40;99.90;;;;;;5057646;28;19924;-62
2022/01/09 11:48:56;;;;;;;;;;;;;;;;;;5043249;28;19913;-61
2022/01/09 11:51:24;;;;;;;;;;;6.30;99.90;;;;;;5058085;28;20149;-62
2022/01/09 11:53:56;;;;;;;;;;;6.50;99.90;;;;;;5037310;28;19970;-62
2022/01/09 11:56:40;;;;;;;;;;;6.50;99.90;;;;;;5057590;28;19913;-62
2022/01/09 11:59:24;;;;;;;;;;;6.50;99.90;;;;;;5056801;28;19920;-61
2022/01/09 12:01:51;;;;;;;;;;;6.50;99.90;;;;;;5055088;28;20031;-61
2022/01/09 12:04:32;;;;;;;;;;;6.50;99.90;;;;;;5053142;28;20023;-61
2022/01/09 12:06:58;;;;;;;;;;;6.50;99.90;;;;;;5056886;28;19922;-61
2022/01/09 12:09:36;;;;;;;;;;;6.50;99.90;;;;;;5055887;28;20290;-62
2022/01/09 12:12:09;;;;;;;;;;;6.50;99.90;;;;;;5058068;28;20380;-62
2022/01/09 12:14:36;;;;;;;;;;;;;;;;;;5057514;28;20154;-62
2022/01/09 12:17:04;;;;;;;;;;;;;;;;;;5053093;28;19948;-61
2022/01/09 12:19:31;;;;;;;;;;;;;;;;;;5057570;28;19956;-61
2022/01/09 12:21:58;;;;;;;;;;;;;;;;;;5056088;28;19978;-62
2022/01/09 12:24:25;;;;;;;;;;;;;;;;;;5057534;28;19999;-61
2022/01/09 12:26:51;;;;;;;;;;;;;;;;;;5057316;28;19916;-61
2022/01/09 12:29:17;;;;;;;;;;;;;;;;;;5057460;28;20005;-61
2022/01/09 12:31:48;;;;;;;;;;;;;;;;;;5057047;28;19952;-61
2022/01/09 12:34:15;;;;;;;;;;;;;;;;;;5058278;28;19939;-61
2022/01/09 12:36:43;;;;;;;;;;;;;;;;;;5056492;28;20130;-61
2022/01/09 12:39:08;;;;;;;;;;;6.50;99.90;;;;;;5057847;28;20409;-61
2022/01/09 12:41:36;;;;;;;;;;;;;;;;;;5057900;28;20005;-61
2022/01/09 12:44:08;;;;;;;;;;;;;;;;;;5057448;28;19916;-62
2022/01/09 12:46:35;;;;;;;;;;;;;;;;;;5056172;28;20445;-61
2022/01/09 12:49:02;;;;;;;;;;;;;;;;;;5058233;28;20244;-61
2022/01/09 12:51:30;;;;;;;;;;;;;;;;;;5057403;28;20507;-62
2022/01/09 12:53:56;;;;;;;;;;;;;;;;;;5057420;28;19952;-62
2022/01/09 12:56:26;;;;;;;;;;;6.70;99.90;;;;;;5057298;28;20730;-62
2022/01/09 12:58:52;;;;;;;;;;;6.70;99.90;;;;;;5056340;28;19951;-61
2022/01/09 13:01:20;;;;;;;;;;;6.70;99.90;;;;;;5056747;28;20011;-61
2022/01/09 13:03:46;;;;;;;;;;;;;;;;;;5037535;28;20440;-62
2022/01/09 13:06:13;;;;;;;;;;;;;;;;;;5055797;28;20005;-61
2022/01/09 13:08:39;;;;;;;;;;;;;;;;;;5055707;28;19928;-61
2022/01/09 13:11:06;;;;;;;;;;;;;;;;;;5054538;28;20013;-62
2022/01/09 13:13:32;;;;;;;;;;;6.70;99.90;;;;;;5054665;28;21722;-61
2022/01/09 13:15:58;;;;;;;;;;;;;;;;;;5056241;28;20268;-61
2022/01/09 13:18:25;;;;;;;;;;;;;;;;;;5055234;28;19917;-61
2022/01/09 13:20:51;;;;;;;;;;;;;;;;;;5055998;28;19912;-61
2022/01/09 13:23:18;;;;;;;;;;;;;;;;;;5044952;28;19924;-62
2022/01/09 13:25:44;;;;;;;;;;;;;;;;;;5053315;28;20468;-61
2022/01/09 13:28:11;;;;;;;;;;;;;;;;;;5055249;28;19959;-62
2022/01/09 13:30:38;;;;;;;;;;;;;;;;;;5056046;28;19952;-61
2022/01/09 13:33:05;;;;;;;;;;;;;;;;;;5056545;28;20480;-62
2022/01/09 13:35:31;;;;;;;;;;;;;;;;;;5057040;28;20009;-62
2022/01/09 13:37:58;;;;;;;;;;;;;;;;;;5049669;28;19920;-62
2022/01/09 13:40:25;;;;;;;;;;;;;;;;;;5055930;28;20403;-61
2022/01/09 13:42:51;;;;;;;;;;;;;;;;;;5054445;28;19960;-61
2022/01/09 13:45:21;;;;;;;;;;;;;;;;;;5043905;28;19981;-62
2022/01/09 13:47:47;;;;;;;;;;;;;;;;;;5054937;28;19931;-62
2022/01/09 13:50:13;;;;;;;;;;;;;;;;;;5050962;28;19929;-62
2022/01/09 13:52:40;;;;;;;;;;;;;;;;;;5054086;28;19948;-61
2022/01/09 13:55:07;;;;;;;;;;;;;;;;;;5043165;28;19956;-62
2022/01/09 13:57:33;;;;;;;;;;;;;;;;;;5056673;28;19919;-61
2022/01/09 14:00:01;;;;;;;;;;;;;;;;;;5058716;28;19916;-62
2022/01/09 14:02:28;;;;;;;;;;;;;;;;;;5051526;28;19970;-61
2022/01/09 14:04:55;;;;;;;;;;;;;;;;;;5054709;28;19927;-62
2022/01/09 14:07:25;;;;;;;;;;;;;;;;;;5039577;28;20080;-62
2022/01/09 14:09:52;;;;;;;;;;;;;;;;;;5056654;28;19919;-61
2022/01/09 14:12:19;;;;;;;;;;;;;;;;;;5052330;28;19917;-61
2022/01/09 14:14:46;;;;;;;;;;;;;;;;;;5052045;28;20449;-61
2022/01/09 14:17:12;;;;;;;;;;;;;;;;;;5054898;28;19927;-62
2022/01/09 14:19:38;;;;;;;;;;;;;;;;;;5044079;28;19960;-61
2022/01/09 14:22:04;;;;;;;;;;;7.10;99.90;;;;;;5056056;28;20002;-61
2022/01/09 14:24:29;;;;;;;;;;;7.10;99.90;;;;;;5054546;28;20193;-60
2022/01/09 14:26:57;;;;;;;;;;;5.80;99.90;;;;;;5055393;28;20107;-61
2022/01/09 14:29:25;;;;;;;;;;;;;;;;;;5056248;28;19929;-60
2022/01/09 14:31:52;;;;;;;;;;;;;;;;;;5055242;28;19943;-61
2022/01/09 14:34:19;;;;;;;;;;;;;;;;;;5055822;28;19989;-61
2022/01/09 14:36:47;;;;;;;;;;;5.20;99.90;;;;;;5041752;28;20176;-61
2022/01/09 14:39:12;;;;;;;;;;;5.20;99.90;;;;;;5042415;28;20013;-61
2022/01/09 14:41:38;;;;;;;;;;;5.70;99.90;;;;;;5042303;28;20363;-61
2022/01/09 14:44:06;;;;;;;;;;;5.80;99.90;;;;;;5057078;28;19921;-61
2022/01/09 14:46:32;;;;;;;;;;;5.70;99.90;;;;;;5054280;28;19924;-61
2022/01/09 14:48:57;;;;;;;;;;;5.90;99.90;;;;;;5055782;28;20033;-61
2022/01/09 14:51:23;;;;;;;;;;;5.70;99.90;;;;;;5052331;28;20379;-61
2022/01/09 14:53:50;;;;;;;;;;;5.80;99.90;;;;;;5056092;28;20021;-62
2022/01/09 14:56:16;;;;;;;;;;;5.50;99.90;;;;;;5060216;28;20407;-61
2022/01/09 14:58:42;;;;;;;;;;;;;;;;;;5044227;28;20466;-61
2022/01/09 15:01:07;;;;;;;;;;;5.80;99.90;;;;;;5048606;28;19924;-61